createdAt,value
2024-03-09T00:00:43.752Z,24.35
2024-03-09T00:03:11.799Z,25.42
2024-03-09T00:05:41.764Z,26.13
2024-03-09T00:08:10.214Z,23.95
2024-03-09T00:10:36.956Z,25.70
2024-03-09T00:13:04.136Z,26.80
2024-03-09T00:15:31.468Z,23.17
2024-03-09T00:17:58.646Z,26.67
2024-03-09T00:20:29.175Z,24.48
2024-03-09T00:22:59.563Z,23.57
2024-03-09T00:25:30.170Z,24.25
2024-03-09T00:27:58.058Z,28.13
2024-03-09T00:30:30.704Z,25.17
2024-03-09T00:33:00.346Z,27.67
2024-03-09T00:35:31.060Z,29.45
2024-03-09T00:37:58.772Z,24.17
2024-03-09T00:40:29.634Z,25.58
2024-03-09T00:42:57.826Z,24.05
2024-03-09T00:45:25.046Z,25.27
2024-03-09T00:47:51.929Z,28.35
2024-03-09T00:50:18.897Z,25.55
2024-03-09T00:52:46.810Z,28.42
2024-03-09T00:55:16.287Z,27.10
2024-03-09T00:57:44.109Z,25.45
2024-03-09T01:00:16.655Z,28.42
2024-03-09T01:02:44.437Z,27.38
2024-03-09T01:05:16.935Z,27.33
2024-03-09T01:07:43.737Z,26.00
2024-03-09T01:10:10.621Z,27.20
2024-03-09T01:12:37.660Z,26.80
2024-03-09T01:15:05.320Z,25.27
2024-03-09T01:17:32.022Z,28.02
2024-03-09T01:19:59.017Z,29.67
2024-03-09T01:22:25.683Z,29.38
2024-03-09T01:24:53.578Z,26.73
2024-03-09T01:27:20.008Z,27.73
2024-03-09T01:29:49.521Z,28.38
2024-03-09T01:32:16.458Z,27.60
2024-03-09T01:34:43.397Z,30.35
2024-03-09T01:37:11.711Z,29.40
2024-03-09T01:39:41.503Z,28.27
2024-03-09T01:42:10.852Z,30.45
2024-03-09T01:44:37.598Z,26.50
2024-03-09T01:47:08.628Z,28.48
2024-03-09T01:49:36.207Z,28.92
2024-03-09T01:52:03.086Z,29.13
2024-03-09T01:54:30.015Z,27.20
2024-03-09T01:56:58.113Z,28.83
2024-03-09T01:59:26.470Z,25.77
2024-03-09T02:01:53.083Z,28.90
2024-03-09T02:04:20.343Z,28.90
2024-03-09T02:06:48.180Z,28.63
2024-03-09T02:09:16.568Z,28.90
2024-03-09T02:11:44.014Z,29.80
2024-03-09T02:14:10.709Z,32.58
2024-03-09T02:16:37.449Z,31.42
2024-03-09T02:19:14.290Z,28.90
2024-03-09T02:21:47.451Z,31.83
2024-03-09T02:24:21.621Z,31.63
2024-03-09T02:26:48.953Z,30.85
2024-03-09T02:29:16.882Z,32.13
2024-03-09T02:31:43.739Z,30.60
2024-03-09T02:34:10.231Z,31.20
2024-03-09T02:36:39.589Z,28.13
2024-03-09T02:39:10.693Z,33.75
2024-03-09T02:41:38.000Z,29.58
2024-03-09T02:44:04.887Z,29.88
2024-03-09T02:46:31.538Z,35.63
2024-03-09T02:48:58.047Z,30.80
2024-03-09T02:51:27.972Z,29.27
2024-03-09T02:53:54.593Z,31.40
2024-03-09T02:56:21.655Z,35.00
2024-03-09T02:58:48.839Z,31.48
2024-03-09T03:01:18.029Z,32.28
2024-03-09T03:03:58.175Z,31.55
2024-03-09T03:06:26.436Z,34.58
2024-03-09T03:09:04.205Z,33.03
2024-03-09T03:11:30.857Z,31.02
2024-03-09T03:13:57.422Z,31.48
2024-03-09T03:16:28.229Z,34.83
2024-03-09T03:18:58.972Z,30.30
2024-03-09T03:21:26.405Z,32.27
2024-03-09T03:23:53.662Z,31.45
2024-03-09T03:26:21.135Z,33.80
2024-03-09T03:28:51.969Z,35.60
2024-03-09T03:31:22.133Z,35.83
2024-03-09T03:33:50.599Z,36.55
2024-03-09T03:36:21.705Z,38.42
2024-03-09T03:38:49.240Z,33.42
2024-03-09T03:41:16.725Z,34.33
2024-03-09T03:43:46.721Z,32.78
2024-03-09T03:46:14.418Z,29.75
2024-03-09T03:48:41.768Z,35.08
2024-03-09T03:51:13.690Z,33.25
2024-03-09T03:53:41.566Z,34.40
2024-03-09T03:56:11.120Z,34.22
2024-03-09T03:58:41.086Z,36.45
2024-03-09T04:01:07.904Z,30.90
2024-03-09T04:03:34.774Z,35.65
2024-03-09T04:06:02.081Z,36.67
2024-03-09T04:08:28.629Z,35.33
2024-03-09T04:10:58.688Z,36.80
2024-03-09T04:13:26.347Z,36.67
2024-03-09T04:15:53.833Z,38.10
2024-03-09T04:18:23.356Z,34.97
2024-03-09T04:20:50.385Z,39.78
2024-03-09T04:23:19.715Z,40.85
2024-03-09T04:25:47.784Z,40.53
2024-03-09T04:28:21.736Z,37.33
2024-03-09T04:30:49.887Z,39.45
2024-03-09T04:33:17.238Z,39.03
2024-03-09T04:35:46.407Z,36.17
2024-03-09T04:38:14.619Z,39.00
2024-03-09T04:40:44.546Z,36.25
2024-03-09T04:43:12.734Z,40.05
2024-03-09T04:45:39.169Z,37.67
2024-03-09T04:48:05.895Z,41.08
2024-03-09T04:50:34.505Z,39.25
2024-03-09T04:53:00.996Z,39.20
2024-03-09T04:55:29.241Z,41.17
2024-03-09T04:57:56.357Z,38.47
2024-03-09T05:00:25.684Z,41.58
2024-03-09T05:02:53.300Z,43.58
2024-03-09T05:05:20.489Z,40.35
2024-03-09T05:07:48.989Z,40.05
2024-03-09T05:10:19.604Z,44.20
2024-03-09T05:12:51.603Z,43.33
2024-03-09T05:15:18.417Z,44.50
2024-03-09T05:17:44.866Z,45.83
2024-03-09T05:20:16.185Z,43.05
2024-03-09T05:22:42.803Z,40.20
2024-03-09T05:25:11.925Z,43.88
2024-03-09T05:27:43.694Z,45.25
2024-03-09T05:30:19.791Z,43.42
2024-03-09T05:32:56.218Z,44.22
2024-03-09T05:35:23.841Z,49.17
2024-03-09T05:37:53.183Z,47.17
2024-03-09T05:40:23.167Z,47.08
2024-03-09T05:42:50.288Z,46.60
2024-03-09T05:45:21.654Z,46.28
2024-03-09T05:47:54.223Z,49.38
2024-03-09T05:50:21.753Z,46.60
2024-03-09T05:52:49.461Z,43.30
2024-03-09T05:55:20.874Z,47.40
2024-03-09T05:57:50.404Z,49.15
2024-03-09T06:00:18.499Z,49.70
2024-03-09T06:02:47.587Z,44.08
2024-03-09T06:05:15.171Z,46.35
2024-03-09T06:07:43.784Z,49.88
2024-03-09T06:10:20.710Z,48.20
2024-03-09T06:12:48.738Z,49.95
2024-03-09T06:15:15.995Z,44.78
2024-03-09T06:17:43.825Z,52.63
2024-03-09T06:20:11.691Z,49.38
2024-03-09T06:22:38.989Z,46.13
2024-03-09T06:25:06.240Z,44.50
2024-03-09T06:27:33.689Z,46.35
2024-03-09T06:30:00.871Z,52.28
2024-03-09T06:32:27.301Z,44.95
2024-03-09T06:34:56.701Z,48.88
2024-03-09T06:37:23.475Z,50.58
2024-03-09T06:39:49.963Z,47.38
2024-03-09T06:42:16.657Z,49.85
2024-03-09T06:44:43.359Z,48.22
2024-03-09T06:47:09.901Z,46.80
2024-03-09T06:49:39.239Z,46.03
2024-03-09T06:52:06.276Z,47.40
2024-03-09T06:54:33.054Z,47.90
2024-03-09T06:56:59.685Z,48.08
2024-03-09T06:59:26.211Z,48.35
2024-03-09T07:01:57.959Z,47.30
2024-03-09T07:04:27.127Z,51.13
2024-03-09T07:06:54.273Z,53.20
2024-03-09T07:09:21.398Z,48.80
2024-03-09T07:11:48.021Z,47.70
2024-03-09T07:14:14.622Z,49.03
2024-03-09T07:16:41.234Z,45.22
2024-03-09T07:19:07.736Z,50.42
2024-03-09T07:21:34.384Z,48.65
2024-03-09T07:24:01.562Z,46.22
2024-03-09T07:26:28.486Z,48.22
2024-03-09T07:28:56.257Z,49.35
2024-03-09T07:31:23.318Z,49.95
2024-03-09T07:33:54.666Z,45.47
2024-03-09T07:36:21.808Z,47.92
2024-03-09T07:38:49.771Z,48.67
2024-03-09T07:41:22.796Z,48.17
2024-03-09T07:43:49.393Z,47.28
2024-03-09T07:46:16.254Z,47.13
2024-03-09T07:48:43.211Z,44.75
2024-03-09T07:51:12.818Z,43.60
2024-03-09T07:53:39.762Z,47.80
2024-03-09T07:56:06.842Z,46.03
2024-03-09T07:58:33.389Z,48.28
2024-03-09T08:00:59.895Z,43.35
2024-03-09T08:03:26.729Z,45.00
2024-03-09T08:05:53.356Z,46.20
2024-03-09T08:08:20.076Z,44.58
2024-03-09T08:10:54.180Z,44.42
2024-03-09T08:13:22.817Z,45.72
2024-03-09T08:15:49.422Z,48.92
2024-03-09T08:18:16.157Z,44.40
2024-03-09T08:20:43.020Z,46.85
2024-03-09T08:23:09.852Z,44.03
2024-03-09T08:25:37.481Z,42.97
2024-03-09T08:28:04.852Z,45.75
2024-03-09T08:30:32.427Z,44.13
2024-03-09T08:33:02.737Z,45.63
2024-03-09T08:35:31.023Z,44.42
2024-03-09T08:37:57.746Z,45.47
2024-03-09T08:40:26.975Z,44.65
2024-03-09T08:42:53.880Z,46.25
2024-03-09T08:45:23.714Z,41.10
2024-03-09T08:47:54.439Z,46.47
2024-03-09T08:50:22.903Z,42.25
2024-03-09T08:52:49.822Z,40.53
2024-03-09T08:55:16.733Z,43.80
2024-03-09T08:57:44.042Z,44.47
2024-03-09T09:00:11.107Z,45.33
2024-03-09T09:02:41.621Z,42.60
2024-03-09T09:05:14.921Z,43.87
2024-03-09T09:07:42.827Z,43.53
2024-03-09T09:10:13.131Z,45.05
2024-03-09T09:12:43.675Z,44.17
2024-03-09T09:15:11.728Z,43.03
2024-03-09T09:17:38.341Z,40.13
2024-03-09T09:20:06.406Z,43.00
2024-03-09T09:22:33.241Z,43.38
2024-03-09T09:25:00.027Z,42.92
2024-03-09T09:27:28.219Z,39.45
2024-03-09T09:29:54.895Z,41.60
2024-03-09T09:32:25.128Z,42.80
2024-03-09T09:34:52.266Z,42.83
2024-03-09T09:37:19.379Z,39.90
2024-03-09T09:39:46.140Z,38.92
2024-03-09T09:42:12.808Z,41.25
2024-03-09T09:44:41.293Z,39.22
2024-03-09T09:47:07.784Z,39.50
2024-03-09T09:49:35.108Z,40.28
2024-03-09T09:52:04.970Z,38.45
2024-03-09T09:54:31.717Z,40.00
2024-03-09T09:56:58.567Z,37.80
2024-03-09T09:59:26.211Z,39.67
2024-03-09T10:01:55.804Z,37.97
2024-03-09T10:04:22.300Z,39.88
2024-03-09T10:06:49.192Z,37.75
2024-03-09T10:09:34.351Z,36.28
2024-03-09T10:12:02.820Z,37.38
2024-03-09T10:14:32.874Z,36.40
2024-03-09T10:17:10.792Z,35.50
2024-03-09T10:19:38.797Z,34.70
2024-03-09T10:22:05.707Z,36.47
2024-03-09T10:24:32.133Z,37.38
2024-03-09T10:27:07.227Z,37.00
2024-03-09T10:29:33.914Z,33.45
2024-03-09T10:32:01.633Z,33.03
2024-03-09T10:34:31.548Z,34.47
2024-03-09T10:37:01.717Z,32.90
2024-03-09T10:39:28.472Z,33.60
2024-03-09T10:41:56.256Z,35.22
2024-03-09T10:44:24.692Z,32.60
2024-03-09T10:46:52.514Z,32.28
2024-03-09T10:49:21.408Z,34.47
2024-03-09T10:51:59.843Z,32.22
2024-03-09T10:54:46.783Z,32.95
2024-03-09T10:57:22.626Z,31.35
2024-03-09T10:59:50.864Z,31.05
2024-03-09T11:02:18.602Z,31.95
2024-03-09T11:04:51.623Z,31.38
2024-03-09T11:07:21.329Z,32.78
2024-03-09T11:09:53.007Z,30.98
2024-03-09T11:12:20.789Z,27.67
2024-03-09T11:14:53.927Z,28.13
2024-03-09T11:17:25.015Z,28.00
2024-03-09T11:19:55.304Z,29.85
2024-03-09T11:22:41.514Z,28.95
2024-03-09T11:25:14.201Z,27.23
2024-03-09T11:27:43.866Z,27.77
2024-03-09T11:30:12.391Z,26.08
2024-03-09T11:32:41.928Z,22.42
2024-03-09T11:35:27.309Z,27.30
2024-03-09T11:37:54.214Z,23.55
2024-03-09T11:40:20.691Z,21.80
2024-03-09T11:42:47.412Z,19.38
2024-03-09T11:45:15.755Z,21.63
2024-03-09T11:47:42.272Z,24.42
2024-03-09T11:50:09.359Z,21.65
2024-03-09T11:52:35.967Z,21.95
2024-03-09T11:55:06.368Z,19.48
2024-03-09T11:57:39.098Z,25.00
2024-03-09T12:00:08.078Z,23.17
2024-03-09T12:02:38.342Z,20.98
2024-03-09T12:05:17.018Z,21.42
2024-03-09T12:07:45.052Z,21.48
2024-03-09T12:10:14.568Z,22.40
2024-03-09T12:12:42.319Z,23.38
2024-03-09T12:15:09.962Z,23.50
2024-03-09T12:17:37.082Z,24.88
2024-03-09T12:20:06.256Z,26.17
2024-03-09T12:22:33.999Z,25.60
2024-03-09T12:25:00.805Z,26.23
2024-03-09T12:27:28.394Z,26.02
2024-03-09T12:29:56.567Z,25.33
2024-03-09T12:32:33.596Z,24.65
2024-03-09T12:35:01.874Z,25.95
2024-03-09T12:37:29.033Z,24.02
2024-03-09T12:40:19.927Z,22.85
2024-03-09T12:42:48.664Z,25.15
2024-03-09T12:45:25.203Z,26.15
2024-03-09T12:47:54.918Z,24.80
2024-03-09T12:50:25.481Z,23.73
2024-03-09T12:52:52.877Z,23.13
2024-03-09T12:55:29.737Z,21.83
2024-03-09T12:58:00.983Z,22.67
2024-03-09T13:02:56.217Z,23.67
2024-03-09T13:05:24.034Z,24.25
2024-03-09T13:07:52.771Z,23.55
2024-03-09T13:10:22.404Z,23.38
2024-03-09T13:12:49.395Z,23.73
2024-03-09T13:15:21.428Z,25.45
2024-03-09T13:17:49.697Z,23.23
2024-03-09T13:20:21.267Z,24.77
2024-03-09T13:22:49.106Z,24.08
2024-03-09T13:25:16.285Z,22.52
2024-03-09T13:27:43.266Z,21.55
2024-03-09T13:30:26.746Z,20.40
2024-03-09T13:32:56.202Z,24.23
2024-03-09T13:35:23.552Z,24.30
2024-03-09T13:37:50.932Z,23.75
2024-03-09T13:40:27.004Z,23.52
2024-03-09T13:42:57.482Z,22.25
2024-03-09T13:45:25.273Z,21.70
2024-03-09T13:47:52.836Z,21.88
2024-03-09T13:50:22.582Z,20.25
2024-03-09T13:52:53.189Z,19.30
2024-03-09T13:55:19.721Z,20.52
2024-03-09T13:57:46.597Z,20.83
2024-03-09T14:00:20.423Z,21.30
2024-03-09T14:02:49.268Z,19.10
2024-03-09T14:05:22.505Z,19.92
2024-03-09T14:07:57.867Z,20.35
2024-03-09T14:10:26.419Z,20.35
2024-03-09T14:12:55.002Z,19.90
2024-03-09T14:15:22.673Z,20.45
2024-03-09T14:17:50.364Z,18.67
2024-03-09T14:20:26.512Z,19.25
2024-03-09T14:22:53.628Z,19.73
2024-03-09T14:25:25.605Z,20.42
2024-03-09T14:27:53.138Z,19.05
2024-03-09T14:30:31.260Z,19.05
2024-03-09T14:32:58.143Z,21.08
2024-03-09T14:35:25.092Z,21.73
2024-03-09T14:37:55.682Z,21.27
2024-03-09T14:40:24.881Z,22.00
2024-03-09T14:42:54.223Z,21.63
2024-03-09T14:45:23.088Z,20.90
2024-03-09T14:48:00.454Z,20.33
2024-03-09T14:50:30.387Z,19.45
2024-03-09T14:52:56.916Z,21.70
2024-03-09T14:55:32.372Z,18.33
2024-03-09T14:58:02.046Z,21.30
2024-03-09T15:00:44.203Z,18.67
2024-03-09T15:03:27.738Z,19.42
2024-03-09T15:05:54.390Z,20.58
2024-03-09T15:08:22.526Z,18.92
2024-03-09T15:10:58.293Z,21.42
2024-03-09T15:13:26.112Z,21.10
2024-03-09T15:15:53.044Z,21.80
2024-03-09T15:18:19.758Z,21.80
2024-03-09T15:20:47.227Z,21.58
2024-03-09T15:23:14.985Z,22.73
2024-03-09T15:25:42.369Z,21.45
2024-03-09T15:28:14.660Z,24.40
2024-03-09T15:30:41.709Z,24.50
2024-03-09T15:33:11.495Z,26.20
2024-03-09T15:35:39.656Z,25.00
2024-03-09T15:38:06.917Z,26.92
2024-03-09T15:40:33.706Z,27.08
2024-03-09T15:43:02.398Z,25.25
2024-03-09T15:45:33.658Z,26.17
2024-03-09T15:48:00.271Z,24.58
2024-03-09T15:50:27.025Z,23.30
2024-03-09T15:52:53.922Z,25.05
2024-03-09T15:55:25.028Z,22.02
2024-03-09T15:57:54.990Z,24.45
2024-03-09T16:00:23.706Z,24.30
2024-03-09T16:02:52.013Z,24.95
2024-03-09T16:05:21.757Z,26.30
2024-03-09T16:07:48.603Z,23.80
2024-03-09T16:10:22.423Z,25.35
2024-03-09T16:12:58.351Z,26.13
2024-03-09T16:15:26.025Z,25.70
2024-03-09T16:17:56.326Z,26.40
2024-03-09T16:20:30.088Z,28.05
2024-03-09T16:23:01.007Z,28.48
2024-03-09T16:25:33.207Z,29.48
2024-03-09T16:28:12.209Z,26.40
2024-03-09T16:30:49.115Z,28.92
2024-03-09T16:33:17.459Z,27.77
2024-03-09T16:35:51.402Z,27.27
2024-03-09T16:38:22.011Z,27.08
2024-03-09T16:40:49.557Z,28.17
2024-03-09T16:43:16.470Z,27.70
2024-03-09T16:45:46.380Z,30.92
2024-03-09T16:48:13.255Z,27.17
2024-03-09T16:50:43.290Z,30.40
2024-03-09T16:53:13.452Z,27.50
2024-03-09T16:55:43.137Z,28.80
2024-03-09T16:58:10.227Z,30.33
2024-03-09T17:00:37.075Z,30.83
2024-03-09T17:03:07.647Z,30.73
2024-03-09T17:05:34.107Z,31.05
2024-03-09T17:08:01.113Z,32.22
2024-03-09T17:10:38.283Z,31.77
2024-03-09T17:13:08.151Z,32.97
2024-03-09T17:15:35.863Z,31.70
2024-03-09T17:18:02.586Z,33.58
2024-03-09T17:20:30.988Z,31.25
2024-03-09T17:23:06.429Z,29.55
2024-03-09T17:25:35.682Z,29.65
2024-03-09T17:28:06.465Z,29.55
2024-03-09T17:30:37.989Z,31.00
2024-03-09T17:33:07.874Z,30.00
2024-03-09T17:35:35.864Z,28.40
2024-03-09T17:38:03.640Z,27.73
2024-03-09T17:40:32.443Z,28.65
2024-03-09T17:42:59.410Z,28.90
2024-03-09T17:45:27.085Z,28.15
2024-03-09T17:47:54.439Z,31.42
2024-03-09T17:50:21.113Z,30.33
2024-03-09T17:52:48.423Z,29.15
2024-03-09T17:55:19.399Z,28.20
2024-03-09T17:57:46.821Z,28.48
2024-03-09T18:00:24.146Z,27.45
2024-03-09T18:02:54.025Z,26.58
2024-03-09T18:05:30.173Z,28.70
2024-03-09T18:07:58.628Z,30.50
2024-03-09T18:10:28.944Z,29.23
2024-03-09T18:12:58.411Z,31.08
2024-03-09T18:15:26.247Z,30.88
2024-03-09T18:17:53.075Z,29.45
2024-03-09T18:20:24.725Z,32.63
2024-03-09T18:22:53.947Z,34.53
2024-03-09T18:25:49.649Z,34.58
2024-03-09T18:28:17.951Z,34.10
2024-03-09T18:30:46.309Z,31.67
2024-03-09T18:33:14.704Z,31.20
2024-03-09T18:35:42.726Z,35.28
2024-03-09T18:38:15.757Z,36.95
2024-03-09T18:40:42.460Z,38.67
2024-03-09T18:43:09.975Z,32.13
2024-03-09T18:45:36.703Z,34.65
2024-03-09T18:48:03.721Z,35.53
2024-03-09T18:50:30.553Z,34.67
2024-03-09T18:53:03.001Z,33.38
2024-03-09T18:55:31.288Z,32.95
2024-03-09T18:58:00.287Z,34.20
2024-03-09T19:00:31.777Z,34.28
2024-03-09T19:03:00.366Z,33.60
2024-03-09T19:05:27.532Z,34.63
2024-03-09T19:07:56.294Z,34.65
2024-03-09T19:10:23.831Z,36.22
2024-03-09T19:27:13.832Z,35.78
2024-03-09T19:29:42.446Z,37.30
2024-03-09T19:32:08.988Z,38.20
2024-03-09T19:42:17.384Z,37.53
2024-03-09T19:45:00.940Z,37.35
2024-03-09T19:47:28.874Z,40.80
2024-03-09T19:49:55.503Z,40.65
2024-03-09T19:52:23.385Z,42.13
2024-03-09T19:54:51.096Z,41.55
2024-03-09T19:57:17.689Z,42.45
2024-03-09T19:59:44.672Z,39.40
2024-03-09T20:02:12.371Z,40.40
2024-03-09T20:04:42.248Z,38.88
2024-03-09T20:07:11.610Z,39.50
2024-03-09T20:09:39.728Z,42.17
2024-03-09T20:12:08.110Z,45.85
2024-03-09T20:14:34.754Z,47.30
2024-03-09T20:17:01.545Z,41.05
2024-03-09T20:19:28.477Z,44.53
2024-03-09T20:21:55.007Z,44.20
2024-03-09T20:24:21.553Z,44.58
2024-03-09T20:26:48.005Z,44.50
2024-03-09T20:29:15.055Z,48.90
2024-03-09T20:31:44.877Z,46.95
2024-03-09T20:34:12.183Z,44.85
2024-03-09T20:36:39.155Z,47.63
2024-03-09T20:39:05.629Z,48.72
2024-03-09T20:41:32.724Z,42.60
2024-03-09T20:44:00.567Z,48.42
2024-03-09T20:46:27.912Z,49.65
2024-03-09T20:48:55.146Z,49.33
2024-03-09T20:51:24.233Z,48.17
2024-03-09T20:53:56.076Z,46.88
2024-03-09T20:56:22.583Z,47.92
2024-03-09T20:58:49.169Z,47.65
2024-03-09T21:01:16.132Z,49.47
2024-03-09T21:03:43.461Z,48.33
2024-03-09T21:06:10.180Z,45.08
2024-03-09T21:08:36.927Z,45.67
2024-03-09T21:11:06.655Z,48.33
2024-03-09T21:13:33.956Z,46.13
2024-03-09T21:16:01.114Z,42.78
2024-03-09T21:18:28.109Z,45.28
2024-03-09T21:20:58.787Z,40.05
2024-03-09T21:23:26.210Z,45.17
2024-03-09T21:25:53.021Z,45.17
2024-03-09T21:28:21.358Z,45.22
2024-03-09T21:30:50.480Z,44.28
2024-03-09T21:33:17.373Z,47.53
2024-03-09T21:35:44.035Z,43.22
2024-03-09T21:38:11.309Z,44.40
2024-03-09T21:40:38.118Z,45.10
2024-03-09T21:43:05.486Z,44.42
2024-03-09T21:45:32.344Z,45.42
2024-03-09T21:48:00.478Z,44.28
2024-03-09T21:50:30.615Z,43.72
2024-03-09T21:53:12.272Z,47.92
2024-03-09T21:55:48.726Z,45.25
2024-03-09T21:58:16.385Z,47.10
2024-03-09T22:00:49.100Z,47.45
2024-03-09T22:03:15.546Z,47.47
2024-03-09T22:05:47.486Z,45.45
2024-03-09T22:08:15.753Z,45.65
2024-03-09T22:10:42.455Z,47.70
2024-03-09T22:13:09.794Z,43.67
2024-03-09T22:15:36.184Z,50.05
2024-03-09T22:18:02.826Z,45.85
2024-03-09T22:20:29.476Z,43.38
2024-03-09T22:22:56.018Z,48.03
2024-03-09T22:25:27.420Z,43.83
2024-03-09T22:27:54.718Z,48.08
2024-03-09T22:30:22.599Z,48.13
2024-03-09T22:32:49.575Z,48.30
2024-03-09T22:35:16.358Z,48.03
2024-03-09T22:37:44.304Z,49.60
2024-03-09T22:40:13.313Z,46.53
2024-03-09T22:42:39.905Z,45.28
2024-03-09T22:47:55.769Z,47.83
2024-03-09T22:50:25.302Z,52.22
2024-03-09T22:52:53.531Z,49.83
2024-03-09T22:55:20.116Z,48.10
2024-03-09T22:57:46.682Z,49.50
2024-03-09T23:00:28.033Z,48.22
2024-03-09T23:02:55.657Z,51.97
2024-03-09T23:05:24.145Z,50.13
2024-03-09T23:07:51.630Z,49.33
2024-03-09T23:10:21.252Z,49.15
2024-03-09T23:12:52.144Z,48.08
2024-03-09T23:15:22.287Z,46.47
2024-03-09T23:17:53.346Z,49.25
2024-03-09T23:20:24.779Z,48.10
2024-03-09T23:22:52.070Z,52.25
2024-03-09T23:25:19.450Z,49.03
2024-03-09T23:27:47.931Z,50.72
2024-03-09T23:30:17.261Z,54.65
2024-03-09T23:32:49.971Z,52.05
2024-03-09T23:35:18.789Z,49.13
2024-03-09T23:37:46.181Z,51.97
2024-03-09T23:40:14.726Z,51.58
2024-03-09T23:42:41.974Z,51.15
2024-03-09T23:45:16.305Z,50.45
2024-03-09T23:47:44.552Z,50.67
2024-03-09T23:50:18.658Z,51.15
2024-03-09T23:52:47.788Z,53.80
2024-03-09T23:55:14.479Z,47.35
2024-03-09T23:57:41.568Z,54.47
